sensor_id;sensor_type;location;lat;lon;timestamp;P1;durP1;ratioP1;P2;durP2;ratioP2
2177;SDS011;1095;50.992;6.798;2022-12-11T00:00:42;79.00;;;30.48;;
2177;SDS011;1095;50.992;6.798;2022-12-11T00:03:09;86.07;;;31.92;;
2177;SDS011;1095;50.992;6.798;2022-12-11T00:05:37;83.10;;;31.83;;
2177;SDS011;1095;50.992;6.798;2022-12-11T00:08:04;79.68;;;31.92;;
2177;SDS011;1095;50.992;6.798;2022-12-11T00:10:31;82.28;;;33.47;;
2177;SDS011;1095;50.992;6.798;2022-12-11T00:12:57;82.22;;;31.30;;
2177;SDS011;1095;50.992;6.798;2022-12-11T00:15:25;85.30;;;31.45;;
2177;SDS011;1095;50.992;6.798;2022-12-11T00:17:52;83.93;;;30.77;;
2177;SDS011;1095;50.992;6.798;2022-12-11T00:20:19;80.88;;;31.20;;
2177;SDS011;1095;50.992;6.798;2022-12-11T00:22:46;73.15;;;28.58;;
2177;SDS011;1095;50.992;6.798;2022-12-11T00:25:12;72.30;;;28.48;;
2177;SDS011;1095;50.992;6.798;2022-12-11T00:27:39;73.70;;;27.48;;
2177;SDS011;1095;50.992;6.798;2022-12-11T00:30:06;69.00;;;25.38;;
2177;SDS011;1095;50.992;6.798;2022-12-11T00:32:35;72.22;;;27.08;;
2177;SDS011;1095;50.992;6.798;2022-12-11T00:35:01;69.00;;;26.92;;
2177;SDS011;1095;50.992;6.798;2022-12-11T00:37:28;73.57;;;27.85;;
2177;SDS011;1095;50.992;6.798;2022-12-11T00:39:55;78.80;;;27.20;;
2177;SDS011;1095;50.992;6.798;2022-12-11T00:42:22;75.43;;;27.83;;
2177;SDS011;1095;50.992;6.798;2022-12-11T00:44:49;79.95;;;28.33;;
2177;SDS011;1095;50.992;6.798;2022-12-11T00:47:16;74.57;;;28.55;;
2177;SDS011;1095;50.992;6.798;2022-12-11T00:49:44;74.70;;;27.38;;
2177;SDS011;1095;50.992;6.798;2022-12-11T00:52:10;82.65;;;29.77;;
2177;SDS011;1095;50.992;6.798;2022-12-11T00:54:39;81.53;;;28.98;;
2177;SDS011;1095;50.992;6.798;2022-12-11T00:57:05;82.60;;;29.73;;
2177;SDS011;1095;50.992;6.798;2022-12-11T00:59:32;82.18;;;29.55;;
2177;SDS011;1095;50.992;6.798;2022-12-11T01:01:59;79.88;;;28.48;;
2177;SDS011;1095;50.992;6.798;2022-12-11T01:04:25;80.47;;;30.58;;
2177;SDS011;1095;50.992;6.798;2022-12-11T01:06:53;79.68;;;28.73;;
2177;SDS011;1095;50.992;6.798;2022-12-11T01:09:20;80.53;;;30.65;;
2177;SDS011;1095;50.992;6.798;2022-12-11T01:12:04;77.28;;;29.52;;
2177;SDS011;1095;50.992;6.798;2022-12-11T01:14:31;75.15;;;29.05;;
2177;SDS011;1095;50.992;6.798;2022-12-11T01:16:57;76.30;;;30.65;;
2177;SDS011;1095;50.992;6.798;2022-12-11T01:19:24;80.95;;;29.55;;
2177;SDS011;1095;50.992;6.798;2022-12-11T01:21:51;91.70;;;32.05;;
2177;SDS011;1095;50.992;6.798;2022-12-11T01:24:19;81.20;;;30.38;;
2177;SDS011;1095;50.992;6.798;2022-12-11T01:26:45;83.20;;;29.17;;
2177;SDS011;1095;50.992;6.798;2022-12-11T01:29:12;91.47;;;31.88;;
2177;SDS011;1095;50.992;6.798;2022-12-11T01:31:39;88.93;;;31.73;;
2177;SDS011;1095;50.992;6.798;2022-12-11T01:34:06;76.22;;;29.27;;
2177;SDS011;1095;50.992;6.798;2022-12-11T01:36:32;85.40;;;30.63;;
2177;SDS011;1095;50.992;6.798;2022-12-11T01:38:59;86.03;;;30.80;;
2177;SDS011;1095;50.992;6.798;2022-12-11T01:41:27;82.95;;;31.27;;
2177;SDS011;1095;50.992;6.798;2022-12-11T01:43:54;88.32;;;32.88;;
2177;SDS011;1095;50.992;6.798;2022-12-11T01:46:22;91.75;;;32.03;;
2177;SDS011;1095;50.992;6.798;2022-12-11T01:48:48;88.93;;;32.83;;
2177;SDS011;1095;50.992;6.798;2022-12-11T01:51:18;85.25;;;30.92;;
2177;SDS011;1095;50.992;6.798;2022-12-11T01:53:47;84.57;;;30.88;;
2177;SDS011;1095;50.992;6.798;2022-12-11T01:56:17;91.05;;;33.80;;
2177;SDS011;1095;50.992;6.798;2022-12-11T01:58:46;95.55;;;32.53;;
2177;SDS011;1095;50.992;6.798;2022-12-11T02:01:17;92.50;;;32.05;;
2177;SDS011;1095;50.992;6.798;2022-12-11T02:03:50;90.28;;;32.45;;
2177;SDS011;1095;50.992;6.798;2022-12-11T02:06:29;80.68;;;29.35;;
2177;SDS011;1095;50.992;6.798;2022-12-11T02:08:57;85.40;;;29.95;;
2177;SDS011;1095;50.992;6.798;2022-12-11T02:11:26;82.65;;;31.02;;
2177;SDS011;1095;50.992;6.798;2022-12-11T02:14:03;86.88;;;31.05;;
2177;SDS011;1095;50.992;6.798;2022-12-11T02:16:36;93.53;;;32.22;;
2177;SDS011;1095;50.992;6.798;2022-12-11T02:19:14;87.22;;;30.88;;
2177;SDS011;1095;50.992;6.798;2022-12-11T02:21:47;83.32;;;28.40;;
2177;SDS011;1095;50.992;6.798;2022-12-11T02:24:21;91.25;;;31.58;;
2177;SDS011;1095;50.992;6.798;2022-12-11T02:27:10;84.38;;;30.10;;
2177;SDS011;1095;50.992;6.798;2022-12-11T02:29:48;83.57;;;28.85;;
2177;SDS011;1095;50.992;6.798;2022-12-11T02:32:18;79.50;;;30.02;;
2177;SDS011;1095;50.992;6.798;2022-12-11T02:34:52;69.90;;;23.15;;
2177;SDS011;1095;50.992;6.798;2022-12-11T02:37:23;77.63;;;28.38;;
2177;SDS011;1095;50.992;6.798;2022-12-11T02:39:53;88.95;;;30.33;;
2177;SDS011;1095;50.992;6.798;2022-12-11T02:42:22;86.45;;;29.23;;
2177;SDS011;1095;50.992;6.798;2022-12-11T02:44:55;89.95;;;31.00;;
2177;SDS011;1095;50.992;6.798;2022-12-11T02:47:24;86.55;;;30.42;;
2177;SDS011;1095;50.992;6.798;2022-12-11T02:49:54;81.25;;;29.52;;
2177;SDS011;1095;50.992;6.798;2022-12-11T02:52:24;80.97;;;28.33;;
2177;SDS011;1095;50.992;6.798;2022-12-11T02:54:53;77.05;;;27.33;;
2177;SDS011;1095;50.992;6.798;2022-12-11T02:57:24;78.32;;;29.23;;
2177;SDS011;1095;50.992;6.798;2022-12-11T02:59:56;79.17;;;27.17;;
2177;SDS011;1095;50.992;6.798;2022-12-11T03:02:23;75.75;;;27.67;;
2177;SDS011;1095;50.992;6.798;2022-12-11T03:04:49;75.43;;;28.00;;
2177;SDS011;1095;50.992;6.798;2022-12-11T03:07:17;74.78;;;28.65;;
2177;SDS011;1095;50.992;6.798;2022-12-11T03:09:47;76.15;;;27.05;;
2177;SDS011;1095;50.992;6.798;2022-12-11T03:12:15;71.53;;;26.27;;
2177;SDS011;1095;50.992;6.798;2022-12-11T03:14:44;72.50;;;25.33;;
2177;SDS011;1095;50.992;6.798;2022-12-11T03:17:14;66.15;;;25.20;;
2177;SDS011;1095;50.992;6.798;2022-12-11T03:19:46;60.83;;;24.13;;
2177;SDS011;1095;50.992;6.798;2022-12-11T03:22:19;62.92;;;23.85;;
2177;SDS011;1095;50.992;6.798;2022-12-11T03:24:52;55.70;;;22.23;;
2177;SDS011;1095;50.992;6.798;2022-12-11T03:27:25;59.10;;;23.40;;
2177;SDS011;1095;50.992;6.798;2022-12-11T03:29:56;59.92;;;22.75;;
2177;SDS011;1095;50.992;6.798;2022-12-11T03:32:30;61.27;;;23.97;;
2177;SDS011;1095;50.992;6.798;2022-12-11T03:35:04;63.47;;;23.10;;
2177;SDS011;1095;50.992;6.798;2022-12-11T03:37:37;56.17;;;22.58;;
2177;SDS011;1095;50.992;6.798;2022-12-11T03:40:08;51.30;;;22.52;;
2177;SDS011;1095;50.992;6.798;2022-12-11T03:42:38;57.60;;;22.15;;
2177;SDS011;1095;50.992;6.798;2022-12-11T03:45:07;50.00;;;20.80;;
2177;SDS011;1095;50.992;6.798;2022-12-11T03:47:36;45.58;;;20.05;;
2177;SDS011;1095;50.992;6.798;2022-12-11T03:50:07;57.90;;;23.88;;
2177;SDS011;1095;50.992;6.798;2022-12-11T03:52:36;48.10;;;20.67;;
2177;SDS011;1095;50.992;6.798;2022-12-11T03:55:05;54.08;;;23.67;;
2177;SDS011;1095;50.992;6.798;2022-12-11T03:57:34;51.15;;;22.02;;
2177;SDS011;1095;50.992;6.798;2022-12-11T04:00:02;51.97;;;20.88;;
2177;SDS011;1095;50.992;6.798;2022-12-11T04:02:30;44.38;;;20.42;;
2177;SDS011;1095;50.992;6.798;2022-12-11T04:04:58;52.25;;;21.27;;
2177;SDS011;1095;50.992;6.798;2022-12-11T04:07:25;46.67;;;19.85;;
2177;SDS011;1095;50.992;6.798;2022-12-11T04:09:52;38.80;;;18.75;;
2177;SDS011;1095;50.992;6.798;2022-12-11T04:12:19;37.67;;;18.83;;
2177;SDS011;1095;50.992;6.798;2022-12-11T04:14:46;35.42;;;17.60;;
2177;SDS011;1095;50.992;6.798;2022-12-11T04:17:27;38.67;;;19.08;;
2177;SDS011;1095;50.992;6.798;2022-12-11T04:20:13;39.97;;;19.48;;
2177;SDS011;1095;50.992;6.798;2022-12-11T04:23:04;40.55;;;19.17;;
2177;SDS011;1095;50.992;6.798;2022-12-11T04:25:49;46.15;;;20.33;;
2177;SDS011;1095;50.992;6.798;2022-12-11T04:28:15;44.00;;;19.15;;
2177;SDS011;1095;50.992;6.798;2022-12-11T04:30:46;41.78;;;19.25;;
2177;SDS011;1095;50.992;6.798;2022-12-11T04:33:14;40.38;;;19.42;;
2177;SDS011;1095;50.992;6.798;2022-12-11T04:35:42;43.53;;;19.45;;
2177;SDS011;1095;50.992;6.798;2022-12-11T04:38:08;42.75;;;19.83;;
2177;SDS011;1095;50.992;6.798;2022-12-11T04:40:35;48.17;;;19.80;;
2177;SDS011;1095;50.992;6.798;2022-12-11T04:43:02;40.50;;;18.67;;
2177;SDS011;1095;50.992;6.798;2022-12-11T04:45:28;41.17;;;19.65;;
2177;SDS011;1095;50.992;6.798;2022-12-11T04:47:55;48.90;;;19.35;;
2177;SDS011;1095;50.992;6.798;2022-12-11T04:50:21;41.22;;;19.10;;
2177;SDS011;1095;50.992;6.798;2022-12-11T04:52:49;45.75;;;20.58;;
2177;SDS011;1095;50.992;6.798;2022-12-11T04:55:19;40.45;;;19.35;;
2177;SDS011;1095;50.992;6.798;2022-12-11T04:57:46;48.88;;;20.00;;
2177;SDS011;1095;50.992;6.798;2022-12-11T05:00:13;41.85;;;19.63;;
2177;SDS011;1095;50.992;6.798;2022-12-11T05:02:41;39.05;;;18.38;;
2177;SDS011;1095;50.992;6.798;2022-12-11T05:05:08;40.92;;;19.25;;
2177;SDS011;1095;50.992;6.798;2022-12-11T05:07:36;41.03;;;18.20;;
2177;SDS011;1095;50.992;6.798;2022-12-11T05:10:04;42.47;;;19.17;;
2177;SDS011;1095;50.992;6.798;2022-12-11T05:12:32;42.38;;;20.00;;
2177;SDS011;1095;50.992;6.798;2022-12-11T05:14:58;41.92;;;18.95;;
2177;SDS011;1095;50.992;6.798;2022-12-11T05:17:25;44.88;;;19.08;;
2177;SDS011;1095;50.992;6.798;2022-12-11T05:19:52;43.15;;;19.42;;
2177;SDS011;1095;50.992;6.798;2022-12-11T05:22:18;46.28;;;18.80;;
2177;SDS011;1095;50.992;6.798;2022-12-11T05:24:45;43.38;;;19.25;;
2177;SDS011;1095;50.992;6.798;2022-12-11T05:27:13;40.50;;;19.27;;
2177;SDS011;1095;50.992;6.798;2022-12-11T05:29:39;44.78;;;19.23;;
2177;SDS011;1095;50.992;6.798;2022-12-11T05:32:06;50.50;;;20.80;;
2177;SDS011;1095;50.992;6.798;2022-12-11T05:34:33;40.92;;;19.23;;
2177;SDS011;1095;50.992;6.798;2022-12-11T05:37:00;44.75;;;18.48;;
2177;SDS011;1095;50.992;6.798;2022-12-11T05:39:26;43.53;;;18.55;;
2177;SDS011;1095;50.992;6.798;2022-12-11T05:41:53;39.85;;;19.02;;
2177;SDS011;1095;50.992;6.798;2022-12-11T05:44:21;44.65;;;20.13;;
2177;SDS011;1095;50.992;6.798;2022-12-11T05:46:48;44.60;;;19.42;;
2177;SDS011;1095;50.992;6.798;2022-12-11T05:49:14;43.28;;;18.90;;
2177;SDS011;1095;50.992;6.798;2022-12-11T05:51:41;45.08;;;20.10;;
2177;SDS011;1095;50.992;6.798;2022-12-11T05:54:08;44.97;;;19.45;;
2177;SDS011;1095;50.992;6.798;2022-12-11T05:56:35;43.92;;;18.98;;
2177;SDS011;1095;50.992;6.798;2022-12-11T05:59:02;47.05;;;20.27;;
2177;SDS011;1095;50.992;6.798;2022-12-11T06:01:32;44.55;;;20.33;;
2177;SDS011;1095;50.992;6.798;2022-12-11T06:04:00;46.83;;;20.27;;
2177;SDS011;1095;50.992;6.798;2022-12-11T06:06:28;41.22;;;19.48;;
2177;SDS011;1095;50.992;6.798;2022-12-11T06:08:55;44.67;;;19.95;;
2177;SDS011;1095;50.992;6.798;2022-12-11T06:11:23;42.75;;;19.65;;
2177;SDS011;1095;50.992;6.798;2022-12-11T06:13:50;46.28;;;20.63;;
2177;SDS011;1095;50.992;6.798;2022-12-11T06:16:17;43.65;;;21.17;;
2177;SDS011;1095;50.992;6.798;2022-12-11T06:18:47;49.55;;;21.35;;
2177;SDS011;1095;50.992;6.798;2022-12-11T06:21:15;43.15;;;19.65;;
2177;SDS011;1095;50.992;6.798;2022-12-11T06:23:43;49.90;;;20.63;;
2177;SDS011;1095;50.992;6.798;2022-12-11T06:26:11;47.25;;;20.38;;
2177;SDS011;1095;50.992;6.798;2022-12-11T06:28:38;48.88;;;21.23;;
2177;SDS011;1095;50.992;6.798;2022-12-11T06:31:05;43.58;;;19.40;;
2177;SDS011;1095;50.992;6.798;2022-12-11T06:33:32;47.13;;;21.73;;
2177;SDS011;1095;50.992;6.798;2022-12-11T06:36:02;44.72;;;21.38;;
2177;SDS011;1095;50.992;6.798;2022-12-11T06:38:29;45.08;;;20.45;;
2177;SDS011;1095;50.992;6.798;2022-12-11T06:40:56;52.08;;;21.33;;
2177;SDS011;1095;50.992;6.798;2022-12-11T06:43:23;49.72;;;22.52;;
2177;SDS011;1095;50.992;6.798;2022-12-11T06:45:50;47.60;;;21.30;;
2177;SDS011;1095;50.992;6.798;2022-12-11T06:48:17;48.90;;;21.05;;
2177;SDS011;1095;50.992;6.798;2022-12-11T06:50:45;49.45;;;22.48;;
2177;SDS011;1095;50.992;6.798;2022-12-11T06:53:13;45.47;;;20.42;;
2177;SDS011;1095;50.992;6.798;2022-12-11T06:55:41;45.22;;;20.40;;
2177;SDS011;1095;50.992;6.798;2022-12-11T06:58:08;50.00;;;20.95;;
2177;SDS011;1095;50.992;6.798;2022-12-11T07:00:36;51.40;;;21.48;;
2177;SDS011;1095;50.992;6.798;2022-12-11T07:03:03;46.25;;;19.80;;
2177;SDS011;1095;50.992;6.798;2022-12-11T07:05:30;48.10;;;20.38;;
2177;SDS011;1095;50.992;6.798;2022-12-11T07:07:57;48.92;;;20.75;;
2177;SDS011;1095;50.992;6.798;2022-12-11T07:10:25;52.10;;;20.42;;
2177;SDS011;1095;50.992;6.798;2022-12-11T07:12:52;49.13;;;20.85;;
2177;SDS011;1095;50.992;6.798;2022-12-11T07:15:19;48.00;;;22.50;;
2177;SDS011;1095;50.992;6.798;2022-12-11T07:17:46;48.38;;;20.70;;
2177;SDS011;1095;50.992;6.798;2022-12-11T07:20:12;50.95;;;22.10;;
2177;SDS011;1095;50.992;6.798;2022-12-11T07:22:39;53.40;;;21.98;;
2177;SDS011;1095;50.992;6.798;2022-12-11T07:25:06;50.72;;;21.70;;
2177;SDS011;1095;50.992;6.798;2022-12-11T07:27:34;50.35;;;21.55;;
2177;SDS011;1095;50.992;6.798;2022-12-11T07:30:01;51.53;;;19.60;;
2177;SDS011;1095;50.992;6.798;2022-12-11T07:32:28;47.63;;;20.48;;
2177;SDS011;1095;50.992;6.798;2022-12-11T07:34:54;47.33;;;19.85;;
2177;SDS011;1095;50.992;6.798;2022-12-11T07:37:23;46.97;;;20.83;;
2177;SDS011;1095;50.992;6.798;2022-12-11T07:39:50;49.17;;;21.58;;
2177;SDS011;1095;50.992;6.798;2022-12-11T07:42:16;52.80;;;22.52;;
2177;SDS011;1095;50.992;6.798;2022-12-11T07:44:44;50.67;;;21.42;;
2177;SDS011;1095;50.992;6.798;2022-12-11T07:47:11;55.05;;;21.33;;
2177;SDS011;1095;50.992;6.798;2022-12-11T07:49:37;53.53;;;22.98;;
2177;SDS011;1095;50.992;6.798;2022-12-11T07:52:04;46.45;;;18.88;;
2177;SDS011;1095;50.992;6.798;2022-12-11T07:54:31;47.17;;;21.05;;
2177;SDS011;1095;50.992;6.798;2022-12-11T07:56:57;50.92;;;21.45;;
2177;SDS011;1095;50.992;6.798;2022-12-11T07:59:24;52.75;;;21.40;;
2177;SDS011;1095;50.992;6.798;2022-12-11T08:01:52;48.78;;;20.35;;
2177;SDS011;1095;50.992;6.798;2022-12-11T08:04:18;47.40;;;20.42;;
2177;SDS011;1095;50.992;6.798;2022-12-11T08:06:45;49.22;;;21.08;;
2177;SDS011;1095;50.992;6.798;2022-12-11T08:09:12;48.72;;;20.52;;
2177;SDS011;1095;50.992;6.798;2022-12-11T08:11:39;47.33;;;20.60;;
2177;SDS011;1095;50.992;6.798;2022-12-11T08:14:06;51.25;;;20.48;;
2177;SDS011;1095;50.992;6.798;2022-12-11T08:16:33;45.58;;;19.48;;
2177;SDS011;1095;50.992;6.798;2022-12-11T08:19:02;47.83;;;21.38;;
2177;SDS011;1095;50.992;6.798;2022-12-11T08:21:28;49.88;;;21.35;;
2177;SDS011;1095;50.992;6.798;2022-12-11T08:23:55;52.78;;;22.27;;
2177;SDS011;1095;50.992;6.798;2022-12-11T08:26:25;50.40;;;20.77;;
2177;SDS011;1095;50.992;6.798;2022-12-11T08:28:53;52.35;;;22.55;;
2177;SDS011;1095;50.992;6.798;2022-12-11T08:31:21;43.38;;;20.20;;
2177;SDS011;1095;50.992;6.798;2022-12-11T08:33:48;43.88;;;20.58;;
2177;SDS011;1095;50.992;6.798;2022-12-11T08:36:18;45.70;;;20.02;;
2177;SDS011;1095;50.992;6.798;2022-12-11T08:38:47;47.00;;;20.90;;
2177;SDS011;1095;50.992;6.798;2022-12-11T08:41:14;42.47;;;19.65;;
2177;SDS011;1095;50.992;6.798;2022-12-11T08:43:42;47.30;;;19.13;;
2177;SDS011;1095;50.992;6.798;2022-12-11T08:46:22;39.45;;;18.73;;
2177;SDS011;1095;50.992;6.798;2022-12-11T08:48:50;40.25;;;19.45;;
2177;SDS011;1095;50.992;6.798;2022-12-11T08:54:01;43.28;;;19.13;;
2177;SDS011;1095;50.992;6.798;2022-12-11T08:56:28;43.13;;;20.23;;
2177;SDS011;1095;50.992;6.798;2022-12-11T08:58:58;46.10;;;20.70;;
2177;SDS011;1095;50.992;6.798;2022-12-11T09:01:25;44.58;;;20.90;;
2177;SDS011;1095;50.992;6.798;2022-12-11T09:03:53;39.58;;;19.25;;
2177;SDS011;1095;50.992;6.798;2022-12-11T09:06:21;41.85;;;19.95;;
2177;SDS011;1095;50.992;6.798;2022-12-11T09:08:53;46.58;;;20.35;;
2177;SDS011;1095;50.992;6.798;2022-12-11T09:11:23;42.30;;;19.55;;
2177;SDS011;1095;50.992;6.798;2022-12-11T09:13:51;38.35;;;19.40;;
2177;SDS011;1095;50.992;6.798;2022-12-11T09:16:30;42.30;;;19.67;;
2177;SDS011;1095;50.992;6.798;2022-12-11T09:19:01;39.17;;;18.80;;
2177;SDS011;1095;50.992;6.798;2022-12-11T09:21:29;43.05;;;19.80;;
2177;SDS011;1095;50.992;6.798;2022-12-11T09:24:01;43.28;;;19.88;;
2177;SDS011;1095;50.992;6.798;2022-12-11T09:26:28;43.05;;;19.50;;
2177;SDS011;1095;50.992;6.798;2022-12-11T09:28:55;38.38;;;18.35;;
2177;SDS011;1095;50.992;6.798;2022-12-11T09:31:22;42.88;;;19.70;;
2177;SDS011;1095;50.992;6.798;2022-12-11T09:33:52;42.08;;;19.88;;
2177;SDS011;1095;50.992;6.798;2022-12-11T09:36:20;43.55;;;19.80;;
2177;SDS011;1095;50.992;6.798;2022-12-11T09:38:47;43.50;;;20.30;;
2177;SDS011;1095;50.992;6.798;2022-12-11T09:44:06;44.75;;;20.30;;
2177;SDS011;1095;50.992;6.798;2022-12-11T09:46:41;42.67;;;18.67;;
2177;SDS011;1095;50.992;6.798;2022-12-11T09:49:11;40.25;;;19.27;;
2177;SDS011;1095;50.992;6.798;2022-12-11T09:51:48;49.85;;;20.25;;
2177;SDS011;1095;50.992;6.798;2022-12-11T09:54:18;42.42;;;19.60;;
2177;SDS011;1095;50.992;6.798;2022-12-11T09:56:47;44.60;;;20.88;;
2177;SDS011;1095;50.992;6.798;2022-12-11T09:59:25;40.38;;;19.23;;
2177;SDS011;1095;50.992;6.798;2022-12-11T10:01:59;38.42;;;18.67;;
2177;SDS011;1095;50.992;6.798;2022-12-11T10:04:37;41.38;;;18.73;;
2177;SDS011;1095;50.992;6.798;2022-12-11T10:07:13;42.78;;;19.58;;
2177;SDS011;1095;50.992;6.798;2022-12-11T10:09:46;44.75;;;19.52;;
2177;SDS011;1095;50.992;6.798;2022-12-11T10:12:21;43.42;;;19.58;;
2177;SDS011;1095;50.992;6.798;2022-12-11T10:15:03;42.92;;;20.08;;
2177;SDS011;1095;50.992;6.798;2022-12-11T10:17:42;42.70;;;19.70;;
2177;SDS011;1095;50.992;6.798;2022-12-11T10:20:14;41.53;;;19.27;;
2177;SDS011;1095;50.992;6.798;2022-12-11T10:22:46;41.00;;;20.20;;
2177;SDS011;1095;50.992;6.798;2022-12-11T10:25:15;45.92;;;20.38;;
2177;SDS011;1095;50.992;6.798;2022-12-11T10:27:47;47.53;;;20.63;;
2177;SDS011;1095;50.992;6.798;2022-12-11T10:30:15;44.63;;;20.13;;
2177;SDS011;1095;50.992;6.798;2022-12-11T10:32:51;39.95;;;19.42;;
2177;SDS011;1095;50.992;6.798;2022-12-11T10:35:25;45.75;;;21.13;;
2177;SDS011;1095;50.992;6.798;2022-12-11T10:37:56;43.35;;;20.35;;
2177;SDS011;1095;50.992;6.798;2022-12-11T10:40:36;43.35;;;19.77;;
2177;SDS011;1095;50.992;6.798;2022-12-11T10:43:06;41.75;;;20.85;;
2177;SDS011;1095;50.992;6.798;2022-12-11T10:45:34;49.72;;;21.88;;
2177;SDS011;1095;50.992;6.798;2022-12-11T10:48:02;47.78;;;22.60;;
2177;SDS011;1095;50.992;6.798;2022-12-11T10:50:29;52.28;;;22.90;;
2177;SDS011;1095;50.992;6.798;2022-12-11T10:52:59;54.08;;;22.13;;
2177;SDS011;1095;50.992;6.798;2022-12-11T10:55:28;56.28;;;23.10;;
2177;SDS011;1095;50.992;6.798;2022-12-11T10:57:59;55.78;;;22.83;;
2177;SDS011;1095;50.992;6.798;2022-12-11T11:00:31;54.13;;;23.13;;
2177;SDS011;1095;50.992;6.798;2022-12-11T11:03:01;57.15;;;22.73;;
2177;SDS011;1095;50.992;6.798;2022-12-11T11:05:43;53.78;;;22.27;;
2177;SDS011;1095;50.992;6.798;2022-12-11T11:08:12;54.40;;;22.35;;
2177;SDS011;1095;50.992;6.798;2022-12-11T11:10:50;56.88;;;23.15;;
2177;SDS011;1095;50.992;6.798;2022-12-11T11:13:19;53.80;;;23.45;;
2177;SDS011;1095;50.992;6.798;2022-12-11T11:15:50;56.25;;;23.30;;
2177;SDS011;1095;50.992;6.798;2022-12-11T11:18:25;63.88;;;24.85;;
2177;SDS011;1095;50.992;6.798;2022-12-11T11:20:53;57.35;;;24.42;;
2177;SDS011;1095;50.992;6.798;2022-12-11T11:23:20;63.10;;;25.95;;
2177;SDS011;1095;50.992;6.798;2022-12-11T11:25:51;56.10;;;26.27;;
2177;SDS011;1095;50.992;6.798;2022-12-11T11:28:20;56.20;;;23.15;;
2177;SDS011;1095;50.992;6.798;2022-12-11T11:31:00;52.42;;;23.70;;
2177;SDS011;1095;50.992;6.798;2022-12-11T11:33:28;56.13;;;24.52;;
2177;SDS011;1095;50.992;6.798;2022-12-11T11:35:57;61.17;;;23.95;;
2177;SDS011;1095;50.992;6.798;2022-12-11T11:38:27;57.53;;;24.45;;
2177;SDS011;1095;50.992;6.798;2022-12-11T11:40:59;63.88;;;25.75;;
2177;SDS011;1095;50.992;6.798;2022-12-11T11:43:35;63.90;;;25.45;;
2177;SDS011;1095;50.992;6.798;2022-12-11T11:46:09;62.40;;;25.67;;
2177;SDS011;1095;50.992;6.798;2022-12-11T11:48:43;70.88;;;27.73;;
2177;SDS011;1095;50.992;6.798;2022-12-11T11:51:18;65.18;;;24.85;;
2177;SDS011;1095;50.992;6.798;2022-12-11T11:53:50;62.95;;;26.15;;
2177;SDS011;1095;50.992;6.798;2022-12-11T11:56:21;63.95;;;25.85;;
2177;SDS011;1095;50.992;6.798;2022-12-11T11:58:53;58.30;;;24.52;;
2177;SDS011;1095;50.992;6.798;2022-12-11T12:01:29;63.53;;;25.48;;
2177;SDS011;1095;50.992;6.798;2022-12-11T12:03:56;60.03;;;26.45;;
2177;SDS011;1095;50.992;6.798;2022-12-11T12:06:27;59.45;;;24.15;;
2177;SDS011;1095;50.992;6.798;2022-12-11T12:09:05;62.03;;;25.38;;
2177;SDS011;1095;50.992;6.798;2022-12-11T12:11:44;61.42;;;25.23;;
2177;SDS011;1095;50.992;6.798;2022-12-11T12:14:16;66.63;;;26.38;;
2177;SDS011;1095;50.992;6.798;2022-12-11T12:16:54;65.15;;;26.33;;
2177;SDS011;1095;50.992;6.798;2022-12-11T12:25:09;54.10;;;24.45;;
2177;SDS011;1095;50.992;6.798;2022-12-11T12:27:44;61.40;;;25.77;;
2177;SDS011;1095;50.992;6.798;2022-12-11T12:30:19;57.03;;;26.13;;
2177;SDS011;1095;50.992;6.798;2022-12-11T12:32:50;58.00;;;26.27;;
2177;SDS011;1095;50.992;6.798;2022-12-11T12:35:29;61.47;;;26.15;;
2177;SDS011;1095;50.992;6.798;2022-12-11T12:38:03;61.03;;;24.95;;
2177;SDS011;1095;50.992;6.798;2022-12-11T12:40:38;61.08;;;26.20;;
2177;SDS011;1095;50.992;6.798;2022-12-11T12:43:25;57.45;;;24.83;;
2177;SDS011;1095;50.992;6.798;2022-12-11T12:46:04;62.28;;;27.08;;
2177;SDS011;1095;50.992;6.798;2022-12-11T12:48:44;60.13;;;26.10;;
2177;SDS011;1095;50.992;6.798;2022-12-11T12:51:11;60.30;;;25.13;;
2177;SDS011;1095;50.992;6.798;2022-12-11T12:53:39;52.33;;;23.83;;
2177;SDS011;1095;50.992;6.798;2022-12-11T12:56:09;52.00;;;24.00;;
2177;SDS011;1095;50.992;6.798;2022-12-11T12:58:40;58.78;;;24.33;;
2177;SDS011;1095;50.992;6.798;2022-12-11T13:01:12;54.90;;;22.40;;
2177;SDS011;1095;50.992;6.798;2022-12-11T13:03:50;56.70;;;23.75;;
2177;SDS011;1095;50.992;6.798;2022-12-11T13:06:27;57.17;;;24.88;;
2177;SDS011;1095;50.992;6.798;2022-12-11T13:08:56;55.15;;;24.27;;
2177;SDS011;1095;50.992;6.798;2022-12-11T13:11:30;63.03;;;25.52;;
2177;SDS011;1095;50.992;6.798;2022-12-11T13:14:02;58.45;;;24.65;;
2177;SDS011;1095;50.992;6.798;2022-12-11T13:16:35;54.17;;;24.52;;
2177;SDS011;1095;50.992;6.798;2022-12-11T13:19:16;55.03;;;24.42;;
2177;SDS011;1095;50.992;6.798;2022-12-11T13:21:55;57.38;;;26.05;;
2177;SDS011;1095;50.992;6.798;2022-12-11T13:24:27;53.38;;;24.88;;
2177;SDS011;1095;50.992;6.798;2022-12-11T13:26:56;55.17;;;25.70;;
2177;SDS011;1095;50.992;6.798;2022-12-11T13:29:35;59.15;;;29.67;;
2177;SDS011;1095;50.992;6.798;2022-12-11T13:32:10;59.63;;;30.25;;
2177;SDS011;1095;50.992;6.798;2022-12-11T13:34:51;65.70;;;29.92;;
2177;SDS011;1095;50.992;6.798;2022-12-11T13:37:22;62.20;;;26.58;;
2177;SDS011;1095;50.992;6.798;2022-12-11T13:39:52;61.75;;;26.83;;
2177;SDS011;1095;50.992;6.798;2022-12-11T13:42:20;58.50;;;26.58;;
2177;SDS011;1095;50.992;6.798;2022-12-11T13:44:53;64.95;;;28.35;;
2177;SDS011;1095;50.992;6.798;2022-12-11T13:47:20;65.75;;;27.77;;
2177;SDS011;1095;50.992;6.798;2022-12-11T13:49:48;60.60;;;26.67;;
2177;SDS011;1095;50.992;6.798;2022-12-11T13:52:21;83.65;;;38.08;;
2177;SDS011;1095;50.992;6.798;2022-12-11T13:54:52;66.70;;;29.90;;
2177;SDS011;1095;50.992;6.798;2022-12-11T13:57:21;73.68;;;29.80;;
2177;SDS011;1095;50.992;6.798;2022-12-11T13:59:50;64.70;;;29.80;;
2177;SDS011;1095;50.992;6.798;2022-12-11T14:02:18;65.18;;;29.42;;
2177;SDS011;1095;50.992;6.798;2022-12-11T14:04:49;60.78;;;28.38;;
2177;SDS011;1095;50.992;6.798;2022-12-11T14:07:24;396.47;;;161.80;;
2177;SDS011;1095;50.992;6.798;2022-12-11T14:09:55;350.00;;;138.18;;
2177;SDS011;1095;50.992;6.798;2022-12-11T14:12:25;119.30;;;50.75;;
2177;SDS011;1095;50.992;6.798;2022-12-11T14:14:54;68.13;;;29.05;;
2177;SDS011;1095;50.992;6.798;2022-12-11T14:17:23;428.35;;;188.60;;
2177;SDS011;1095;50.992;6.798;2022-12-11T14:19:51;416.95;;;181.88;;
2177;SDS011;1095;50.992;6.798;2022-12-11T14:22:20;115.50;;;53.28;;
2177;SDS011;1095;50.992;6.798;2022-12-11T14:24:52;58.07;;;25.97;;
2177;SDS011;1095;50.992;6.798;2022-12-11T14:27:20;279.85;;;117.43;;
2177;SDS011;1095;50.992;6.798;2022-12-11T14:29:48;210.75;;;96.53;;
2177;SDS011;1095;50.992;6.798;2022-12-11T14:32:17;158.38;;;72.70;;
2177;SDS011;1095;50.992;6.798;2022-12-11T14:34:48;100.18;;;44.80;;
2177;SDS011;1095;50.992;6.798;2022-12-11T14:37:18;79.18;;;36.03;;
2177;SDS011;1095;50.992;6.798;2022-12-11T14:39:52;82.05;;;42.15;;
2177;SDS011;1095;50.992;6.798;2022-12-11T14:42:23;63.17;;;29.25;;
2177;SDS011;1095;50.992;6.798;2022-12-11T14:44:53;73.38;;;40.67;;
2177;SDS011;1095;50.992;6.798;2022-12-11T14:47:22;72.50;;;34.58;;
2177;SDS011;1095;50.992;6.798;2022-12-11T14:49:53;76.85;;;39.35;;
2177;SDS011;1095;50.992;6.798;2022-12-11T14:52:26;92.60;;;50.20;;
2177;SDS011;1095;50.992;6.798;2022-12-11T14:57:29;65.10;;;29.58;;
2177;SDS011;1095;50.992;6.798;2022-12-11T14:59:58;63.78;;;28.95;;
2177;SDS011;1095;50.992;6.798;2022-12-11T15:02:27;62.03;;;29.10;;
2177;SDS011;1095;50.992;6.798;2022-12-11T15:04:57;53.78;;;26.52;;
2177;SDS011;1095;50.992;6.798;2022-12-11T15:07:27;50.28;;;24.52;;
2177;SDS011;1095;50.992;6.798;2022-12-11T15:09:54;49.05;;;23.60;;
2177;SDS011;1095;50.992;6.798;2022-12-11T15:12:22;52.90;;;25.23;;
2177;SDS011;1095;50.992;6.798;2022-12-11T15:14:50;45.13;;;22.20;;
2177;SDS011;1095;50.992;6.798;2022-12-11T15:17:19;45.55;;;21.88;;